Dupage Airport
KDPA : now visible

Airfield :











YOU CAN JOIN US ON...

 
LOGIN :

Register | Disclaimer

   EN    FR    IT 

 









Legend :    VFR   Marginal VFR   IFR   Intensive IFR   Very Intensive IFR
Visi :
Ceiling :
>= 8 km
>= 3000ft
5 to 8 km
1000 to 3000 ft
1500m to 5 km
500 to 1000 ft
800 to 1500m
200 to 500 ft
< 800m
< 200 ft
Symbols :   Thunderstorms  Fog  Heavy snow  Heavy precipitations  Wind > 20 kt






- Airport Elevation : 759 ft


KDPA - Dupage

CURRENT METAR :
  • 142002Z 30011KT 9SM SCT010 OVC015 M01/M04 A2973 RMK AO2 T10111044

EXPIRED METARs :
  • 141952Z 30010KT 8SM BKN010 OVC015 M01/M04 A2972 RMK AO2 SLP074 T10111044
  • 141945Z 28012KT 7SM BKN010 OVC015 M01/M04 A2972 RMK AO2 T10111039
  • 141852Z 30014KT 6SM BR OVC008 M01/M03 A2971 RMK AO2 SLP070 T10061028
  • 141752Z 32011KT 3SM BR OVC005 M01/M02 A2971 RMK AO2 SLP068 T10061017 10000 21039 50000

TAF KDPA
Valid from the 14 at 18:00 until the 15 at 18:00 UTC


141729Z 1418/1518 31010KT 2SM BR OVC005
FM141900 32012KT 5SM BR OVC010
FM142200 30012G18KT P6SM SCT015 BKN022
FM150600 30011KT P6SM SCT020 SCT200
FM151500 29006KT P6SM BKN150



MET'MAP, your aeronautical weather chart ! - Copyright ORBIFLY December 2007 - Disclaimer

ORBIFLY MET'MAP TEAM :

Programming & Development : Alexandra Zaïnal
Concept & original design : Baudouin d'Aumeries
Assistance for programming : Marc-Olivier Méhu
Technical & hardware support : Manuel Goepfert

Contact : metmap@orbifly.com




SOURCES & CREDITS :

   NOAA       Earth
Advisory